sensor_id;sensor_type;location;lat;lon;timestamp;P1;durP1;ratioP1;P2;durP2;ratioP2
20802;SDS011;10562;-33.856;151.182;2023-03-23T00:00:15;18.17;;;16.38;;
20802;SDS011;10562;-33.856;151.182;2023-03-23T00:02:47;18.85;;;16.88;;
20802;SDS011;10562;-33.856;151.182;2023-03-23T00:05:18;21.13;;;18.90;;
20802;SDS011;10562;-33.856;151.182;2023-03-23T00:07:48;21.10;;;18.90;;
20802;SDS011;10562;-33.856;151.182;2023-03-23T00:10:23;21.20;;;18.95;;
20802;SDS011;10562;-33.856;151.182;2023-03-23T00:12:59;26.30;;;20.42;;
20802;SDS011;10562;-33.856;151.182;2023-03-23T00:15:30;23.90;;;21.00;;
20802;SDS011;10562;-33.856;151.182;2023-03-23T00:18:01;24.55;;;21.98;;
20802;SDS011;10562;-33.856;151.182;2023-03-23T00:20:32;25.30;;;22.63;;
20802;SDS011;10562;-33.856;151.182;2023-03-23T00:23:07;25.90;;;23.20;;
20802;SDS011;10562;-33.856;151.182;2023-03-23T00:25:47;26.98;;;24.38;;
20802;SDS011;10562;-33.856;151.182;2023-03-23T00:28:20;30.77;;;27.30;;
20802;SDS011;10562;-33.856;151.182;2023-03-23T00:30:57;31.85;;;28.45;;
20802;SDS011;10562;-33.856;151.182;2023-03-23T00:33:30;36.53;;;32.90;;
20802;SDS011;10562;-33.856;151.182;2023-03-23T00:36:04;45.10;;;41.00;;
20802;SDS011;10562;-33.856;151.182;2023-03-23T00:38:35;51.88;;;47.05;;
20802;SDS011;10562;-33.856;151.182;2023-03-23T00:41:09;47.20;;;42.97;;
20802;SDS011;10562;-33.856;151.182;2023-03-23T00:43:41;52.92;;;47.78;;
20802;SDS011;10562;-33.856;151.182;2023-03-23T00:46:12;46.20;;;42.10;;
20802;SDS011;10562;-33.856;151.182;2023-03-23T00:48:42;47.40;;;42.63;;
20802;SDS011;10562;-33.856;151.182;2023-03-23T00:51:13;21.10;;;15.25;;
20802;SDS011;10562;-33.856;151.182;2023-03-23T00:53:44;18.95;;;10.73;;
20802;SDS011;10562;-33.856;151.182;2023-03-23T00:56:17;14.45;;;8.77;;
20802;SDS011;10562;-33.856;151.182;2023-03-23T00:58:49;15.45;;;8.02;;
20802;SDS011;10562;-33.856;151.182;2023-03-23T01:01:20;12.60;;;7.82;;
20802;SDS011;10562;-33.856;151.182;2023-03-23T01:03:51;16.48;;;8.13;;
20802;SDS011;10562;-33.856;151.182;2023-03-23T01:06:27;15.77;;;7.53;;
20802;SDS011;10562;-33.856;151.182;2023-03-23T01:09:01;14.68;;;7.75;;
20802;SDS011;10562;-33.856;151.182;2023-03-23T01:11:34;14.45;;;7.15;;
20802;SDS011;10562;-33.856;151.182;2023-03-23T01:14:05;15.18;;;6.70;;
20802;SDS011;10562;-33.856;151.182;2023-03-23T01:16:36;16.75;;;7.00;;
20802;SDS011;10562;-33.856;151.182;2023-03-23T01:19:07;11.77;;;6.07;;
20802;SDS011;10562;-33.856;151.182;2023-03-23T01:21:39;10.82;;;5.90;;
20802;SDS011;10562;-33.856;151.182;2023-03-23T01:24:10;13.25;;;6.63;;
20802;SDS011;10562;-33.856;151.182;2023-03-23T01:26:43;12.98;;;5.82;;
20802;SDS011;10562;-33.856;151.182;2023-03-23T01:29:13;10.98;;;5.03;;
20802;SDS011;10562;-33.856;151.182;2023-03-23T01:31:44;10.88;;;5.20;;
20802;SDS011;10562;-33.856;151.182;2023-03-23T01:34:15;13.35;;;4.95;;
20802;SDS011;10562;-33.856;151.182;2023-03-23T01:36:46;11.73;;;4.40;;
20802;SDS011;10562;-33.856;151.182;2023-03-23T01:39:16;10.05;;;4.90;;
20802;SDS011;10562;-33.856;151.182;2023-03-23T01:41:49;9.90;;;4.30;;
20802;SDS011;10562;-33.856;151.182;2023-03-23T01:47:26;11.45;;;4.50;;
20802;SDS011;10562;-33.856;151.182;2023-03-23T01:49:57;13.13;;;4.70;;
20802;SDS011;10562;-33.856;151.182;2023-03-23T01:52:28;9.27;;;4.03;;
20802;SDS011;10562;-33.856;151.182;2023-03-23T01:55:00;13.15;;;4.63;;
20802;SDS011;10562;-33.856;151.182;2023-03-23T01:57:33;11.27;;;4.80;;
20802;SDS011;10562;-33.856;151.182;2023-03-23T02:00:04;11.27;;;4.40;;
20802;SDS011;10562;-33.856;151.182;2023-03-23T02:02:41;13.55;;;4.80;;
20802;SDS011;10562;-33.856;151.182;2023-03-23T02:05:14;7.75;;;3.83;;
20802;SDS011;10562;-33.856;151.182;2023-03-23T02:07:49;9.65;;;4.43;;
20802;SDS011;10562;-33.856;151.182;2023-03-23T02:10:21;11.30;;;4.50;;
20802;SDS011;10562;-33.856;151.182;2023-03-23T02:12:53;8.38;;;4.10;;
20802;SDS011;10562;-33.856;151.182;2023-03-23T02:15:24;9.85;;;4.00;;
20802;SDS011;10562;-33.856;151.182;2023-03-23T02:18:02;10.45;;;4.78;;
20802;SDS011;10562;-33.856;151.182;2023-03-23T02:20:40;9.32;;;4.15;;
20802;SDS011;10562;-33.856;151.182;2023-03-23T02:26:29;8.88;;;4.30;;
20802;SDS011;10562;-33.856;151.182;2023-03-23T02:29:11;7.72;;;4.20;;
20802;SDS011;10562;-33.856;151.182;2023-03-23T02:32:02;7.32;;;4.20;;
20802;SDS011;10562;-33.856;151.182;2023-03-23T02:34:43;10.15;;;3.92;;
20802;SDS011;10562;-33.856;151.182;2023-03-23T02:37:19;8.75;;;4.15;;
20802;SDS011;10562;-33.856;151.182;2023-03-23T02:39:54;8.90;;;3.97;;
20802;SDS011;10562;-33.856;151.182;2023-03-23T02:42:33;10.15;;;3.83;;
20802;SDS011;10562;-33.856;151.182;2023-03-23T02:45:05;13.68;;;4.78;;
20802;SDS011;10562;-33.856;151.182;2023-03-23T02:47:39;14.45;;;5.43;;
20802;SDS011;10562;-33.856;151.182;2023-03-23T02:50:14;11.25;;;3.70;;
20802;SDS011;10562;-33.856;151.182;2023-03-23T02:52:49;12.00;;;4.10;;
20802;SDS011;10562;-33.856;151.182;2023-03-23T02:55:21;7.13;;;3.97;;
20802;SDS011;10562;-33.856;151.182;2023-03-23T02:57:54;10.20;;;4.20;;
20802;SDS011;10562;-33.856;151.182;2023-03-23T03:00:28;12.60;;;4.97;;
20802;SDS011;10562;-33.856;151.182;2023-03-23T03:02:58;10.15;;;4.50;;
20802;SDS011;10562;-33.856;151.182;2023-03-23T03:05:36;11.20;;;4.30;;
20802;SDS011;10562;-33.856;151.182;2023-03-23T03:08:13;12.02;;;4.80;;
20802;SDS011;10562;-33.856;151.182;2023-03-23T03:10:52;9.75;;;4.03;;
20802;SDS011;10562;-33.856;151.182;2023-03-23T03:13:30;10.07;;;4.20;;
20802;SDS011;10562;-33.856;151.182;2023-03-23T03:16:07;12.63;;;4.07;;
20802;SDS011;10562;-33.856;151.182;2023-03-23T03:18:46;9.38;;;4.07;;
20802;SDS011;10562;-33.856;151.182;2023-03-23T03:21:22;9.55;;;3.78;;
20802;SDS011;10562;-33.856;151.182;2023-03-23T03:23:55;11.07;;;3.63;;
20802;SDS011;10562;-33.856;151.182;2023-03-23T03:26:28;8.70;;;3.80;;
20802;SDS011;10562;-33.856;151.182;2023-03-23T03:29:00;8.55;;;3.88;;
20802;SDS011;10562;-33.856;151.182;2023-03-23T03:31:32;8.98;;;3.95;;
20802;SDS011;10562;-33.856;151.182;2023-03-23T03:34:11;6.22;;;3.20;;
20802;SDS011;10562;-33.856;151.182;2023-03-23T03:36:45;8.25;;;3.42;;
20802;SDS011;10562;-33.856;151.182;2023-03-23T03:39:18;9.73;;;3.63;;
20802;SDS011;10562;-33.856;151.182;2023-03-23T03:41:49;7.40;;;3.50;;
20802;SDS011;10562;-33.856;151.182;2023-03-23T03:44:20;8.23;;;3.40;;
20802;SDS011;10562;-33.856;151.182;2023-03-23T03:46:51;11.57;;;4.10;;
20802;SDS011;10562;-33.856;151.182;2023-03-23T03:49:22;15.10;;;4.45;;
20802;SDS011;10562;-33.856;151.182;2023-03-23T03:51:55;14.23;;;4.47;;
20802;SDS011;10562;-33.856;151.182;2023-03-23T03:54:25;17.05;;;5.10;;
20802;SDS011;10562;-33.856;151.182;2023-03-23T03:56:56;12.00;;;4.10;;
20802;SDS011;10562;-33.856;151.182;2023-03-23T03:59:27;14.07;;;4.78;;
20802;SDS011;10562;-33.856;151.182;2023-03-23T04:01:58;17.38;;;5.13;;
20802;SDS011;10562;-33.856;151.182;2023-03-23T04:04:30;13.93;;;4.57;;
20802;SDS011;10562;-33.856;151.182;2023-03-23T04:07:02;18.42;;;4.65;;
20802;SDS011;10562;-33.856;151.182;2023-03-23T04:09:33;11.80;;;4.53;;
20802;SDS011;10562;-33.856;151.182;2023-03-23T04:12:04;8.60;;;3.92;;
20802;SDS011;10562;-33.856;151.182;2023-03-23T04:14:35;10.15;;;4.55;;
20802;SDS011;10562;-33.856;151.182;2023-03-23T04:17:06;11.13;;;3.97;;
20802;SDS011;10562;-33.856;151.182;2023-03-23T04:19:37;10.52;;;3.67;;
20802;SDS011;10562;-33.856;151.182;2023-03-23T04:22:10;10.93;;;4.03;;
20802;SDS011;10562;-33.856;151.182;2023-03-23T04:24:42;13.05;;;4.05;;
20802;SDS011;10562;-33.856;151.182;2023-03-23T04:27:14;15.65;;;4.10;;
20802;SDS011;10562;-33.856;151.182;2023-03-23T04:29:45;10.93;;;4.20;;
20802;SDS011;10562;-33.856;151.182;2023-03-23T04:32:16;11.63;;;4.88;;
20802;SDS011;10562;-33.856;151.182;2023-03-23T04:34:47;13.50;;;3.88;;
20802;SDS011;10562;-33.856;151.182;2023-03-23T04:37:19;9.30;;;3.53;;
20802;SDS011;10562;-33.856;151.182;2023-03-23T04:39:55;10.88;;;3.72;;
20802;SDS011;10562;-33.856;151.182;2023-03-23T04:42:33;10.70;;;3.45;;
20802;SDS011;10562;-33.856;151.182;2023-03-23T04:45:04;12.65;;;3.55;;
20802;SDS011;10562;-33.856;151.182;2023-03-23T04:47:36;11.07;;;3.58;;
20802;SDS011;10562;-33.856;151.182;2023-03-23T04:50:08;10.02;;;3.33;;
20802;SDS011;10562;-33.856;151.182;2023-03-23T04:52:42;10.07;;;3.30;;
20802;SDS011;10562;-33.856;151.182;2023-03-23T04:55:13;8.68;;;3.22;;
20802;SDS011;10562;-33.856;151.182;2023-03-23T04:57:44;9.68;;;3.30;;
20802;SDS011;10562;-33.856;151.182;2023-03-23T05:00:15;7.25;;;3.03;;
20802;SDS011;10562;-33.856;151.182;2023-03-23T05:02:47;9.93;;;3.47;;
20802;SDS011;10562;-33.856;151.182;2023-03-23T05:05:19;9.25;;;3.20;;
20802;SDS011;10562;-33.856;151.182;2023-03-23T05:07:52;9.30;;;2.85;;
20802;SDS011;10562;-33.856;151.182;2023-03-23T05:10:24;6.28;;;2.92;;
20802;SDS011;10562;-33.856;151.182;2023-03-23T05:12:55;8.35;;;3.10;;
20802;SDS011;10562;-33.856;151.182;2023-03-23T05:15:26;10.70;;;3.50;;
20802;SDS011;10562;-33.856;151.182;2023-03-23T05:17:56;10.70;;;3.15;;
20802;SDS011;10562;-33.856;151.182;2023-03-23T05:20:27;10.02;;;3.47;;
20802;SDS011;10562;-33.856;151.182;2023-03-23T05:23:00;10.63;;;3.08;;
20802;SDS011;10562;-33.856;151.182;2023-03-23T05:25:31;10.68;;;2.92;;
20802;SDS011;10562;-33.856;151.182;2023-03-23T05:28:06;9.27;;;3.00;;
20802;SDS011;10562;-33.856;151.182;2023-03-23T05:30:37;10.20;;;3.40;;
20802;SDS011;10562;-33.856;151.182;2023-03-23T05:33:10;8.65;;;3.03;;
20802;SDS011;10562;-33.856;151.182;2023-03-23T05:35:41;8.85;;;3.60;;
20802;SDS011;10562;-33.856;151.182;2023-03-23T05:38:15;6.55;;;3.08;;
20802;SDS011;10562;-33.856;151.182;2023-03-23T05:40:46;8.82;;;3.28;;
20802;SDS011;10562;-33.856;151.182;2023-03-23T05:43:18;9.40;;;3.60;;
20802;SDS011;10562;-33.856;151.182;2023-03-23T05:45:49;8.50;;;3.60;;
20802;SDS011;10562;-33.856;151.182;2023-03-23T05:48:20;8.70;;;3.90;;
20802;SDS011;10562;-33.856;151.182;2023-03-23T05:50:50;10.15;;;3.83;;
20802;SDS011;10562;-33.856;151.182;2023-03-23T05:53:23;9.65;;;3.88;;
20802;SDS011;10562;-33.856;151.182;2023-03-23T05:55:58;10.48;;;4.00;;
20802;SDS011;10562;-33.856;151.182;2023-03-23T05:58:29;8.68;;;3.83;;
20802;SDS011;10562;-33.856;151.182;2023-03-23T06:01:00;12.05;;;4.00;;
20802;SDS011;10562;-33.856;151.182;2023-03-23T06:03:34;10.63;;;3.65;;
20802;SDS011;10562;-33.856;151.182;2023-03-23T06:06:05;10.35;;;3.20;;
20802;SDS011;10562;-33.856;151.182;2023-03-23T06:08:39;9.32;;;3.58;;
20802;SDS011;10562;-33.856;151.182;2023-03-23T06:11:10;9.90;;;3.10;;
20802;SDS011;10562;-33.856;151.182;2023-03-23T06:13:44;5.22;;;3.50;;
20802;SDS011;10562;-33.856;151.182;2023-03-23T06:16:16;6.00;;;4.20;;
20802;SDS011;10562;-33.856;151.182;2023-03-23T06:18:47;8.38;;;3.92;;
20802;SDS011;10562;-33.856;151.182;2023-03-23T06:21:17;7.30;;;4.60;;
20802;SDS011;10562;-33.856;151.182;2023-03-23T06:23:50;9.30;;;6.65;;
20802;SDS011;10562;-33.856;151.182;2023-03-23T06:26:22;10.50;;;5.80;;
20802;SDS011;10562;-33.856;151.182;2023-03-23T06:28:59;9.43;;;6.68;;
20802;SDS011;10562;-33.856;151.182;2023-03-23T06:31:31;7.80;;;5.22;;
20802;SDS011;10562;-33.856;151.182;2023-03-23T06:34:04;8.82;;;5.10;;
20802;SDS011;10562;-33.856;151.182;2023-03-23T06:36:34;10.13;;;4.75;;
20802;SDS011;10562;-33.856;151.182;2023-03-23T06:39:07;8.10;;;5.28;;
20802;SDS011;10562;-33.856;151.182;2023-03-23T06:41:38;6.60;;;5.78;;
20802;SDS011;10562;-33.856;151.182;2023-03-23T06:44:09;11.98;;;7.78;;
20802;SDS011;10562;-33.856;151.182;2023-03-23T06:46:40;12.40;;;8.30;;
20802;SDS011;10562;-33.856;151.182;2023-03-23T06:49:11;14.95;;;13.45;;
20802;SDS011;10562;-33.856;151.182;2023-03-23T06:51:42;13.57;;;12.15;;
20802;SDS011;10562;-33.856;151.182;2023-03-23T06:54:15;13.43;;;11.93;;
20802;SDS011;10562;-33.856;151.182;2023-03-23T06:56:46;11.13;;;10.02;;
20802;SDS011;10562;-33.856;151.182;2023-03-23T06:59:16;13.98;;;11.68;;
20802;SDS011;10562;-33.856;151.182;2023-03-23T07:01:47;17.08;;;15.23;;
20802;SDS011;10562;-33.856;151.182;2023-03-23T07:04:18;26.13;;;23.88;;
20802;SDS011;10562;-33.856;151.182;2023-03-23T07:06:49;39.40;;;36.13;;
20802;SDS011;10562;-33.856;151.182;2023-03-23T07:09:22;41.92;;;38.30;;
20802;SDS011;10562;-33.856;151.182;2023-03-23T07:11:53;41.88;;;38.17;;
20802;SDS011;10562;-33.856;151.182;2023-03-23T07:14:23;40.35;;;36.95;;
20802;SDS011;10562;-33.856;151.182;2023-03-23T07:16:54;48.58;;;44.58;;
20802;SDS011;10562;-33.856;151.182;2023-03-23T07:19:25;61.22;;;56.20;;
20802;SDS011;10562;-33.856;151.182;2023-03-23T07:21:56;61.58;;;56.78;;
20802;SDS011;10562;-33.856;151.182;2023-03-23T07:24:29;64.70;;;59.38;;
20802;SDS011;10562;-33.856;151.182;2023-03-23T07:27:00;66.93;;;61.80;;
20802;SDS011;10562;-33.856;151.182;2023-03-23T07:29:31;64.65;;;59.60;;
20802;SDS011;10562;-33.856;151.182;2023-03-23T07:32:04;64.20;;;59.10;;
20802;SDS011;10562;-33.856;151.182;2023-03-23T07:34:35;67.40;;;61.67;;
20802;SDS011;10562;-33.856;151.182;2023-03-23T07:37:06;72.75;;;66.90;;
20802;SDS011;10562;-33.856;151.182;2023-03-23T07:39:39;72.95;;;67.25;;
20802;SDS011;10562;-33.856;151.182;2023-03-23T07:42:10;70.32;;;64.95;;
20802;SDS011;10562;-33.856;151.182;2023-03-23T07:44:41;71.45;;;65.60;;
20802;SDS011;10562;-33.856;151.182;2023-03-23T07:47:12;70.22;;;64.55;;
20802;SDS011;10562;-33.856;151.182;2023-03-23T07:49:43;72.90;;;66.97;;
20802;SDS011;10562;-33.856;151.182;2023-03-23T07:52:14;72.10;;;66.38;;
20802;SDS011;10562;-33.856;151.182;2023-03-23T07:54:47;67.72;;;62.22;;
20802;SDS011;10562;-33.856;151.182;2023-03-23T07:57:18;68.55;;;63.42;;
20802;SDS011;10562;-33.856;151.182;2023-03-23T07:59:49;65.38;;;60.08;;
20802;SDS011;10562;-33.856;151.182;2023-03-23T08:02:19;62.95;;;57.92;;
20802;SDS011;10562;-33.856;151.182;2023-03-23T08:04:50;60.97;;;56.13;;
20802;SDS011;10562;-33.856;151.182;2023-03-23T08:07:22;57.40;;;52.72;;
20802;SDS011;10562;-33.856;151.182;2023-03-23T08:09:55;54.88;;;50.55;;
20802;SDS011;10562;-33.856;151.182;2023-03-23T08:12:27;48.55;;;44.67;;
20802;SDS011;10562;-33.856;151.182;2023-03-23T08:14:57;43.85;;;40.17;;
20802;SDS011;10562;-33.856;151.182;2023-03-23T08:17:28;44.88;;;41.13;;
20802;SDS011;10562;-33.856;151.182;2023-03-23T08:19:59;43.30;;;39.78;;
20802;SDS011;10562;-33.856;151.182;2023-03-23T08:22:38;39.55;;;36.45;;
20802;SDS011;10562;-33.856;151.182;2023-03-23T08:25:13;38.20;;;34.90;;
20802;SDS011;10562;-33.856;151.182;2023-03-23T08:27:44;38.13;;;34.92;;
20802;SDS011;10562;-33.856;151.182;2023-03-23T08:30:15;35.80;;;32.72;;
20802;SDS011;10562;-33.856;151.182;2023-03-23T08:32:47;36.80;;;33.58;;
20802;SDS011;10562;-33.856;151.182;2023-03-23T08:35:19;45.15;;;41.05;;
20802;SDS011;10562;-33.856;151.182;2023-03-23T08:37:50;44.95;;;41.00;;
20802;SDS011;10562;-33.856;151.182;2023-03-23T08:40:23;45.00;;;41.45;;
20802;SDS011;10562;-33.856;151.182;2023-03-23T08:42:54;45.65;;;41.95;;
20802;SDS011;10562;-33.856;151.182;2023-03-23T08:45:25;47.05;;;42.92;;
20802;SDS011;10562;-33.856;151.182;2023-03-23T08:47:56;49.58;;;45.42;;
20802;SDS011;10562;-33.856;151.182;2023-03-23T08:50:27;52.13;;;47.75;;
20802;SDS011;10562;-33.856;151.182;2023-03-23T08:52:59;52.65;;;48.20;;
20802;SDS011;10562;-33.856;151.182;2023-03-23T08:55:31;53.47;;;49.13;;
20802;SDS011;10562;-33.856;151.182;2023-03-23T08:58:02;51.97;;;47.92;;
20802;SDS011;10562;-33.856;151.182;2023-03-23T09:00:33;51.70;;;47.63;;
20802;SDS011;10562;-33.856;151.182;2023-03-23T09:03:04;47.15;;;43.47;;
20802;SDS011;10562;-33.856;151.182;2023-03-23T09:05:35;45.35;;;41.85;;
20802;SDS011;10562;-33.856;151.182;2023-03-23T09:08:11;49.15;;;45.10;;
20802;SDS011;10562;-33.856;151.182;2023-03-23T09:10:44;42.38;;;39.10;;
20802;SDS011;10562;-33.856;151.182;2023-03-23T09:13:15;40.95;;;37.78;;
20802;SDS011;10562;-33.856;151.182;2023-03-23T09:15:46;41.90;;;38.53;;
20802;SDS011;10562;-33.856;151.182;2023-03-23T09:18:19;35.72;;;32.85;;
20802;SDS011;10562;-33.856;151.182;2023-03-23T09:20:50;39.17;;;36.17;;
20802;SDS011;10562;-33.856;151.182;2023-03-23T09:23:21;40.28;;;37.17;;
20802;SDS011;10562;-33.856;151.182;2023-03-23T09:25:54;42.03;;;38.92;;
20802;SDS011;10562;-33.856;151.182;2023-03-23T09:28:25;40.03;;;37.13;;
20802;SDS011;10562;-33.856;151.182;2023-03-23T09:30:57;38.00;;;35.20;;
20802;SDS011;10562;-33.856;151.182;2023-03-23T09:33:28;41.28;;;38.00;;
20802;SDS011;10562;-33.856;151.182;2023-03-23T09:36:01;37.47;;;34.47;;
20802;SDS011;10562;-33.856;151.182;2023-03-23T09:38:34;39.92;;;36.92;;
20802;SDS011;10562;-33.856;151.182;2023-03-23T09:41:12;38.00;;;35.22;;
20802;SDS011;10562;-33.856;151.182;2023-03-23T09:43:57;34.22;;;31.63;;
20802;SDS011;10562;-33.856;151.182;2023-03-23T09:46:44;33.47;;;30.98;;
20802;SDS011;10562;-33.856;151.182;2023-03-23T09:49:23;32.88;;;30.17;;
20802;SDS011;10562;-33.856;151.182;2023-03-23T09:52:00;33.92;;;31.38;;
20802;SDS011;10562;-33.856;151.182;2023-03-23T09:54:38;32.10;;;29.80;;
20802;SDS011;10562;-33.856;151.182;2023-03-23T09:57:15;31.70;;;29.40;;
20802;SDS011;10562;-33.856;151.182;2023-03-23T09:59:51;32.25;;;29.83;;
20802;SDS011;10562;-33.856;151.182;2023-03-23T10:02:27;29.65;;;27.45;;
20802;SDS011;10562;-33.856;151.182;2023-03-23T10:05:12;35.17;;;32.58;;
20802;SDS011;10562;-33.856;151.182;2023-03-23T10:07:54;36.50;;;33.70;;
20802;SDS011;10562;-33.856;151.182;2023-03-23T10:10:26;38.95;;;36.15;;
20802;SDS011;10562;-33.856;151.182;2023-03-23T10:13:07;43.42;;;40.13;;
20802;SDS011;10562;-33.856;151.182;2023-03-23T10:15:43;44.60;;;41.42;;
20802;SDS011;10562;-33.856;151.182;2023-03-23T10:18:17;44.47;;;41.22;;
20802;SDS011;10562;-33.856;151.182;2023-03-23T10:20:53;44.13;;;40.72;;
20802;SDS011;10562;-33.856;151.182;2023-03-23T10:26:27;50.47;;;46.80;;
20802;SDS011;10562;-33.856;151.182;2023-03-23T10:29:07;48.58;;;44.97;;
20802;SDS011;10562;-33.856;151.182;2023-03-23T10:31:43;45.28;;;41.78;;
20802;SDS011;10562;-33.856;151.182;2023-03-23T10:34:20;43.80;;;40.60;;
20802;SDS011;10562;-33.856;151.182;2023-03-23T10:36:59;47.03;;;43.55;;
20802;SDS011;10562;-33.856;151.182;2023-03-23T10:39:33;49.53;;;45.88;;
20802;SDS011;10562;-33.856;151.182;2023-03-23T10:42:20;50.83;;;47.08;;
20802;SDS011;10562;-33.856;151.182;2023-03-23T10:44:54;54.13;;;50.05;;
20802;SDS011;10562;-33.856;151.182;2023-03-23T10:47:26;53.83;;;49.83;;
20802;SDS011;10562;-33.856;151.182;2023-03-23T10:49:58;55.50;;;51.40;;
20802;SDS011;10562;-33.856;151.182;2023-03-23T10:52:32;51.20;;;47.40;;
20802;SDS011;10562;-33.856;151.182;2023-03-23T10:55:05;51.50;;;47.63;;
20802;SDS011;10562;-33.856;151.182;2023-03-23T10:57:38;53.40;;;49.35;;
20802;SDS011;10562;-33.856;151.182;2023-03-23T11:00:18;50.40;;;46.60;;
20802;SDS011;10562;-33.856;151.182;2023-03-23T11:02:57;48.28;;;44.30;;
20802;SDS011;10562;-33.856;151.182;2023-03-23T11:05:34;51.65;;;47.63;;
20802;SDS011;10562;-33.856;151.182;2023-03-23T11:08:11;49.25;;;45.28;;
20802;SDS011;10562;-33.856;151.182;2023-03-23T11:10:51;50.53;;;46.65;;
20802;SDS011;10562;-33.856;151.182;2023-03-23T11:13:27;53.22;;;49.30;;
20802;SDS011;10562;-33.856;151.182;2023-03-23T11:16:04;61.35;;;56.83;;
20802;SDS011;10562;-33.856;151.182;2023-03-23T11:18:37;58.75;;;54.42;;
20802;SDS011;10562;-33.856;151.182;2023-03-23T11:21:10;67.18;;;61.78;;
20802;SDS011;10562;-33.856;151.182;2023-03-23T11:23:43;66.35;;;61.55;;
20802;SDS011;10562;-33.856;151.182;2023-03-23T11:26:20;57.60;;;53.40;;
20802;SDS011;10562;-33.856;151.182;2023-03-23T11:28:55;61.80;;;57.30;;
20802;SDS011;10562;-33.856;151.182;2023-03-23T11:31:30;58.95;;;54.45;;
20802;SDS011;10562;-33.856;151.182;2023-03-23T11:34:03;65.88;;;61.10;;
20802;SDS011;10562;-33.856;151.182;2023-03-23T11:36:40;69.38;;;63.97;;
20802;SDS011;10562;-33.856;151.182;2023-03-23T11:39:22;68.53;;;63.53;;
20802;SDS011;10562;-33.856;151.182;2023-03-23T11:41:54;72.13;;;67.00;;
20802;SDS011;10562;-33.856;151.182;2023-03-23T11:44:31;75.03;;;69.53;;
20802;SDS011;10562;-33.856;151.182;2023-03-23T11:47:07;82.38;;;76.57;;
20802;SDS011;10562;-33.856;151.182;2023-03-23T11:49:47;87.95;;;81.35;;
20802;SDS011;10562;-33.856;151.182;2023-03-23T11:52:24;81.28;;;75.50;;
20802;SDS011;10562;-33.856;151.182;2023-03-23T11:55:03;83.47;;;77.63;;
20802;SDS011;10562;-33.856;151.182;2023-03-23T11:57:41;78.90;;;73.05;;
20802;SDS011;10562;-33.856;151.182;2023-03-23T12:00:18;76.15;;;70.65;;
20802;SDS011;10562;-33.856;151.182;2023-03-23T12:03:05;76.13;;;70.57;;
20802;SDS011;10562;-33.856;151.182;2023-03-23T12:06:12;74.95;;;69.35;;
20802;SDS011;10562;-33.856;151.182;2023-03-23T12:08:56;77.03;;;71.45;;
20802;SDS011;10562;-33.856;151.182;2023-03-23T12:11:35;88.38;;;81.85;;
20802;SDS011;10562;-33.856;151.182;2023-03-23T12:14:13;77.25;;;71.55;;
20802;SDS011;10562;-33.856;151.182;2023-03-23T12:16:52;83.35;;;77.10;;
20802;SDS011;10562;-33.856;151.182;2023-03-23T12:19:33;85.43;;;79.30;;
20802;SDS011;10562;-33.856;151.182;2023-03-23T12:22:15;88.68;;;82.53;;
20802;SDS011;10562;-33.856;151.182;2023-03-23T12:24:56;94.78;;;87.72;;
20802;SDS011;10562;-33.856;151.182;2023-03-23T12:27:35;86.88;;;80.88;;
20802;SDS011;10562;-33.856;151.182;2023-03-23T12:33:13;90.82;;;84.32;;
20802;SDS011;10562;-33.856;151.182;2023-03-23T12:35:59;88.40;;;81.97;;
20802;SDS011;10562;-33.856;151.182;2023-03-23T12:38:48;81.22;;;75.40;;
20802;SDS011;10562;-33.856;151.182;2023-03-23T12:41:32;95.10;;;88.28;;
20802;SDS011;10562;-33.856;151.182;2023-03-23T12:44:08;99.32;;;92.32;;
20802;SDS011;10562;-33.856;151.182;2023-03-23T12:46:47;105.07;;;97.75;;
20802;SDS011;10562;-33.856;151.182;2023-03-23T12:49:29;111.32;;;103.68;;
20802;SDS011;10562;-33.856;151.182;2023-03-23T12:52:08;109.80;;;102.25;;
20802;SDS011;10562;-33.856;151.182;2023-03-23T12:54:44;108.63;;;101.03;;
20802;SDS011;10562;-33.856;151.182;2023-03-23T12:57:20;107.25;;;99.57;;
20802;SDS011;10562;-33.856;151.182;2023-03-23T12:59:59;113.75;;;106.05;;
20802;SDS011;10562;-33.856;151.182;2023-03-23T13:02:39;107.60;;;100.20;;
20802;SDS011;10562;-33.856;151.182;2023-03-23T13:05:24;107.40;;;99.88;;
20802;SDS011;10562;-33.856;151.182;2023-03-23T13:08:01;108.72;;;101.32;;
20802;SDS011;10562;-33.856;151.182;2023-03-23T13:10:46;108.38;;;100.88;;
20802;SDS011;10562;-33.856;151.182;2023-03-23T13:13:18;110.85;;;103.28;;
20802;SDS011;10562;-33.856;151.182;2023-03-23T13:15:56;113.13;;;105.38;;
20802;SDS011;10562;-33.856;151.182;2023-03-23T13:18:37;111.07;;;103.45;;
20802;SDS011;10562;-33.856;151.182;2023-03-23T13:21:13;119.03;;;110.88;;
20802;SDS011;10562;-33.856;151.182;2023-03-23T13:23:50;119.90;;;111.68;;
20802;SDS011;10562;-33.856;151.182;2023-03-23T13:26:25;115.00;;;107.22;;
20802;SDS011;10562;-33.856;151.182;2023-03-23T13:28:57;116.10;;;108.00;;
20802;SDS011;10562;-33.856;151.182;2023-03-23T13:31:30;116.70;;;108.57;;
20802;SDS011;10562;-33.856;151.182;2023-03-23T13:34:03;120.20;;;111.72;;
20802;SDS011;10562;-33.856;151.182;2023-03-23T13:36:36;115.30;;;107.05;;
20802;SDS011;10562;-33.856;151.182;2023-03-23T13:39:18;117.43;;;109.25;;
20802;SDS011;10562;-33.856;151.182;2023-03-23T13:41:59;85.47;;;78.95;;
20802;SDS011;10562;-33.856;151.182;2023-03-23T13:44:42;114.20;;;106.18;;
20802;SDS011;10562;-33.856;151.182;2023-03-23T13:47:26;118.32;;;110.13;;
20802;SDS011;10562;-33.856;151.182;2023-03-23T13:52:58;126.10;;;117.47;;
20802;SDS011;10562;-33.856;151.182;2023-03-23T13:55:38;131.23;;;121.78;;
20802;SDS011;10562;-33.856;151.182;2023-03-23T13:58:10;135.70;;;126.13;;
20802;SDS011;10562;-33.856;151.182;2023-03-23T14:01:01;135.07;;;125.80;;
20802;SDS011;10562;-33.856;151.182;2023-03-23T14:03:42;139.13;;;129.68;;
20802;SDS011;10562;-33.856;151.182;2023-03-23T14:06:18;132.60;;;123.38;;
20802;SDS011;10562;-33.856;151.182;2023-03-23T14:08:53;135.13;;;125.90;;
20802;SDS011;10562;-33.856;151.182;2023-03-23T14:11:34;136.52;;;127.20;;
20802;SDS011;10562;-33.856;151.182;2023-03-23T14:14:20;139.52;;;130.00;;
20802;SDS011;10562;-33.856;151.182;2023-03-23T14:17:05;132.18;;;122.88;;
20802;SDS011;10562;-33.856;151.182;2023-03-23T14:19:38;135.50;;;126.13;;
20802;SDS011;10562;-33.856;151.182;2023-03-23T14:22:16;139.80;;;130.10;;
20802;SDS011;10562;-33.856;151.182;2023-03-23T14:24:48;137.95;;;128.73;;
20802;SDS011;10562;-33.856;151.182;2023-03-23T14:27:21;145.10;;;135.27;;
20802;SDS011;10562;-33.856;151.182;2023-03-23T14:29:57;140.50;;;130.90;;
20802;SDS011;10562;-33.856;151.182;2023-03-23T14:32:29;142.52;;;132.82;;
20802;SDS011;10562;-33.856;151.182;2023-03-23T14:35:04;150.68;;;139.27;;
20802;SDS011;10562;-33.856;151.182;2023-03-23T14:37:36;133.15;;;124.00;;
20802;SDS011;10562;-33.856;151.182;2023-03-23T14:40:09;138.85;;;129.25;;
20802;SDS011;10562;-33.856;151.182;2023-03-23T14:42:46;140.98;;;131.38;;